createdAt,value
2023-02-02T00:04:55.833Z,100231.41
2023-02-02T00:09:58.047Z,100230.00
2023-02-02T00:15:00.153Z,100239.47
2023-02-02T00:20:02.264Z,100235.03
2023-02-02T00:25:05.944Z,100243.59
2023-02-02T00:30:09.022Z,100227.03
2023-02-02T00:35:11.167Z,100218.84
2023-02-02T00:40:13.505Z,100153.66
2023-02-02T00:45:18.671Z,100151.97
2023-02-02T00:50:21.357Z,100160.22
2023-02-02T00:55:24.159Z,100157.25
2023-02-02T01:00:27.564Z,100156.53
2023-02-02T01:05:30.634Z,100183.41
2023-02-02T01:10:34.132Z,100197.34
2023-02-02T01:15:37.278Z,100172.78
2023-02-02T01:20:39.350Z,100169.97
2023-02-02T01:25:41.453Z,100167.88
2023-02-02T01:30:43.537Z,100172.78
2023-02-02T01:35:50.933Z,100197.66
2023-02-02T01:40:56.028Z,100195.16
2023-02-02T01:45:59.249Z,100214.44
2023-02-02T01:51:06.935Z,100196.63
2023-02-02T01:56:12.107Z,100173.81
2023-02-02T02:01:15.071Z,100183.81
2023-02-02T02:06:19.044Z,100174.69
2023-02-02T02:11:22.634Z,100167.25
2023-02-02T02:16:37.142Z,100137.28
2023-02-02T02:22:24.781Z,100124.13
2023-02-02T02:27:45.204Z,100141.28
2023-02-02T02:32:52.836Z,100138.56
2023-02-02T02:38:06.124Z,100142.16
2023-02-02T02:43:18.906Z,100173.31
2023-02-02T02:48:21.424Z,100174.06
2023-02-02T02:53:24.217Z,100179.44
2023-02-02T02:58:53.640Z,100184.38
2023-02-02T03:04:04.649Z,100187.97
2023-02-02T03:09:11.841Z,100172.84
2023-02-02T03:14:13.944Z,100180.72
2023-02-02T03:19:16.086Z,100161.31
2023-02-02T03:24:18.177Z,100149.41
2023-02-02T03:29:20.381Z,100179.06
2023-02-02T03:34:22.566Z,100190.69
2023-02-02T03:39:24.626Z,100160.06
2023-02-02T03:44:26.881Z,100157.88
2023-02-02T03:49:29.005Z,100181.38
2023-02-02T03:54:31.554Z,100177.50
2023-02-02T03:59:33.700Z,100170.78
2023-02-02T04:04:35.870Z,100170.28
2023-02-02T04:09:37.945Z,100146.69
2023-02-02T04:14:40.062Z,100145.53
2023-02-02T04:19:42.327Z,100156.41
2023-02-02T04:24:44.424Z,100123.31
2023-02-02T04:29:46.663Z,100161.12
2023-02-02T04:34:48.841Z,100153.53
2023-02-02T04:39:50.974Z,100164.00
2023-02-02T04:44:53.111Z,100172.06
2023-02-02T04:49:55.209Z,100184.00
2023-02-02T04:54:57.336Z,100186.75
2023-02-02T04:59:59.424Z,100193.00
2023-02-02T05:05:01.546Z,100178.03
2023-02-02T05:10:07.928Z,100189.06
2023-02-02T05:15:10.677Z,100199.28
2023-02-02T05:20:12.986Z,100221.91
2023-02-02T05:25:15.181Z,100242.75
2023-02-02T05:30:17.717Z,100258.97
2023-02-02T05:35:19.858Z,100272.28
2023-02-02T05:40:21.986Z,100282.78
2023-02-02T05:45:24.527Z,100293.22
2023-02-02T05:50:26.799Z,100280.66
2023-02-02T05:55:28.877Z,100270.63
2023-02-02T06:00:30.997Z,100291.91
2023-02-02T06:05:33.147Z,100274.59
2023-02-02T06:10:36.252Z,100272.59
2023-02-02T06:15:38.569Z,100286.44
2023-02-02T06:20:40.777Z,100278.94
2023-02-02T06:25:42.889Z,100283.81
2023-02-02T06:30:45.598Z,100288.88
2023-02-02T06:35:47.841Z,100257.03
2023-02-02T06:40:50.066Z,100254.19
2023-02-02T06:45:52.358Z,100264.81
2023-02-02T06:50:57.448Z,100271.22
2023-02-02T06:56:04.399Z,100268.97
2023-02-02T07:01:09.578Z,100268.00
2023-02-02T07:06:20.651Z,100286.94
2023-02-02T07:11:23.288Z,100286.84
2023-02-02T07:16:25.723Z,100310.53
2023-02-02T07:21:36.326Z,100299.72
2023-02-02T07:26:39.208Z,100330.62
2023-02-02T07:31:42.027Z,100341.25
2023-02-02T07:36:44.348Z,100346.00
2023-02-02T07:41:46.443Z,100364.81
2023-02-02T07:46:48.716Z,100338.50
2023-02-02T07:51:50.901Z,100346.50
2023-02-02T07:56:53.314Z,100357.16
2023-02-02T08:01:55.600Z,100350.13
2023-02-02T08:06:57.797Z,100350.31
2023-02-02T08:12:02.436Z,100331.28
2023-02-02T08:17:04.646Z,100351.63
2023-02-02T08:22:06.944Z,100342.94
2023-02-02T08:27:10.030Z,100342.53
2023-02-02T08:32:12.500Z,100340.38
2023-02-02T08:37:14.798Z,100321.00
2023-02-02T08:42:16.990Z,100321.22
2023-02-02T08:47:19.170Z,100301.03
2023-02-02T08:52:21.471Z,100327.88
2023-02-02T08:57:23.551Z,100333.00
2023-02-02T09:02:25.881Z,100341.41
2023-02-02T09:07:27.982Z,100344.69
2023-02-02T09:12:31.309Z,100346.88
2023-02-02T09:17:33.411Z,100348.09
2023-02-02T09:22:35.521Z,100371.53
2023-02-02T09:27:41.060Z,100342.44
2023-02-02T09:32:43.371Z,100384.56
2023-02-02T09:37:45.597Z,100368.34
2023-02-02T09:43:28.683Z,100375.38
2023-02-02T09:48:58.410Z,100376.53
2023-02-02T09:54:10.180Z,100360.22
2023-02-02T09:59:22.839Z,100376.13
2023-02-02T10:04:39.820Z,100367.06
2023-02-02T10:10:04.159Z,100389.75
2023-02-02T10:15:23.055Z,100384.56
2023-02-02T10:20:46.509Z,100386.16
2023-02-02T10:26:20.138Z,100366.22
2023-02-02T10:31:43.060Z,100393.59
2023-02-02T10:37:00.443Z,100380.22
2023-02-02T10:42:23.779Z,100382.87
2023-02-02T10:47:35.692Z,100355.94
2023-02-02T10:52:39.933Z,100347.19
2023-02-02T10:58:23.007Z,100365.03
2023-02-02T11:03:28.592Z,100347.31
2023-02-02T11:08:38.964Z,100348.03
2023-02-02T11:13:47.945Z,100337.53
2023-02-02T11:18:50.504Z,100338.75
2023-02-02T11:24:30.373Z,100350.97
2023-02-02T11:29:38.828Z,100361.22
2023-02-02T11:34:41.020Z,100321.75
2023-02-02T11:39:44.549Z,100296.75
2023-02-02T11:44:53.342Z,100368.63
2023-02-02T11:49:58.712Z,100387.13
2023-02-02T11:55:14.709Z,100386.19
2023-02-02T12:00:19.525Z,100400.94
2023-02-02T12:05:21.598Z,100404.47
2023-02-02T12:10:42.108Z,100401.56
2023-02-02T12:15:51.347Z,100401.16
2023-02-02T12:21:26.918Z,100399.44
2023-02-02T12:26:32.005Z,100398.03
2023-02-02T12:31:37.081Z,100398.91
2023-02-02T12:37:04.609Z,100401.56
2023-02-02T12:42:35.106Z,100404.41
2023-02-02T12:47:55.775Z,100404.59
2023-02-02T12:53:22.722Z,100390.63
2023-02-02T12:58:37.287Z,100376.09
2023-02-02T13:03:58.114Z,100389.19
2023-02-02T13:09:19.704Z,100395.19
2023-02-02T13:14:34.092Z,100388.88
2023-02-02T13:19:41.455Z,100408.00
2023-02-02T13:24:48.041Z,100407.19
2023-02-02T13:29:56.867Z,100418.47
2023-02-02T13:35:21.653Z,100415.78
2023-02-02T13:40:32.915Z,100406.16
2023-02-02T13:45:53.912Z,100416.56
2023-02-02T13:51:26.712Z,100408.16
2023-02-02T13:56:31.857Z,100419.22
2023-02-02T14:01:35.967Z,100409.97
2023-02-02T14:07:00.230Z,100413.50
2023-02-02T14:12:07.369Z,100424.22
2023-02-02T14:17:20.369Z,100422.59
2023-02-02T14:22:44.695Z,100422.91
2023-02-02T14:27:59.936Z,100426.94
2023-02-02T14:33:20.618Z,100414.25
2023-02-02T14:38:44.656Z,100421.81
2023-02-02T14:43:53.995Z,100439.72
2023-02-02T14:48:57.912Z,100413.00
2023-02-02T14:54:03.669Z,100437.50
2023-02-02T14:59:07.694Z,100427.25
2023-02-02T15:04:22.641Z,100415.94
2023-02-02T15:09:27.992Z,100404.00
2023-02-02T15:14:58.373Z,100447.84
2023-02-02T15:20:09.375Z,100457.22
2023-02-02T15:25:26.701Z,100461.13
2023-02-02T15:30:34.444Z,100475.34
2023-02-02T15:35:38.297Z,100482.75
2023-02-02T15:40:41.072Z,100488.37
2023-02-02T15:45:50.044Z,100502.28
2023-02-02T15:50:56.659Z,100504.03
2023-02-02T15:55:59.189Z,100496.97
2023-02-02T16:01:03.197Z,100506.41
2023-02-02T16:06:07.829Z,100494.69
2023-02-02T16:11:13.332Z,100518.84
2023-02-02T16:16:25.298Z,100516.84
2023-02-02T16:21:29.296Z,100525.94
2023-02-02T16:26:33.403Z,100535.53
2023-02-02T16:31:36.087Z,100543.81
2023-02-02T16:36:38.302Z,100549.75
2023-02-02T16:41:40.545Z,100562.56
2023-02-02T16:46:49.130Z,100568.38
2023-02-02T16:52:09.934Z,100585.56
2023-02-02T16:57:21.821Z,100597.28
2023-02-02T17:02:26.700Z,100615.31
2023-02-02T17:07:31.253Z,100609.50
2023-02-02T17:12:34.784Z,100607.47
2023-02-02T17:17:38.646Z,100621.38
2023-02-02T17:22:44.444Z,100617.59
2023-02-02T17:27:47.149Z,100613.22
2023-02-02T17:32:52.704Z,100613.41
2023-02-02T17:37:55.364Z,100638.31
2023-02-02T17:42:57.636Z,100626.31
2023-02-02T17:48:02.879Z,100641.00
2023-02-02T17:53:05.496Z,100620.41
2023-02-02T17:58:08.887Z,100640.16
2023-02-02T18:03:34.239Z,100649.06
2023-02-02T18:08:36.605Z,100633.78
2023-02-02T18:13:39.158Z,100640.25
2023-02-02T18:18:41.586Z,100647.06
2023-02-02T18:23:48.013Z,100660.34
2023-02-02T18:28:50.880Z,100677.16
2023-02-02T18:33:53.863Z,100710.75
2023-02-02T18:38:56.427Z,100699.69
2023-02-02T18:43:58.543Z,100704.84
2023-02-02T18:49:00.954Z,100704.47
2023-02-02T18:54:03.316Z,100716.91
2023-02-02T18:59:06.981Z,100691.37
2023-02-02T19:04:13.351Z,100700.38
2023-02-02T19:09:17.311Z,100717.25
2023-02-02T19:14:19.610Z,100733.03
2023-02-02T19:19:33.284Z,100731.75
2023-02-02T19:24:39.967Z,100720.72
2023-02-02T19:29:42.156Z,100739.00
2023-02-02T19:34:46.934Z,100736.03
2023-02-02T19:39:49.549Z,100722.69
2023-02-02T19:44:53.283Z,100727.66
2023-02-02T19:49:57.033Z,100746.56
2023-02-02T19:55:00.561Z,100722.31
2023-02-02T20:00:20.579Z,100742.22
2023-02-02T20:05:29.612Z,100736.53
2023-02-02T20:10:43.586Z,100770.38
2023-02-02T20:15:46.344Z,100783.63
2023-02-02T20:20:52.584Z,100739.03
2023-02-02T20:25:55.076Z,100808.78
2023-02-02T20:30:57.221Z,100818.91
2023-02-02T20:36:02.308Z,100802.47
2023-02-02T20:41:05.881Z,100832.06
2023-02-02T20:46:08.048Z,100828.19
2023-02-02T20:51:10.635Z,100842.44
2023-02-02T20:56:12.889Z,100845.84
2023-02-02T21:01:15.184Z,100847.16
2023-02-02T21:06:17.405Z,100860.00
2023-02-02T21:11:19.963Z,100863.72
2023-02-02T21:16:22.493Z,100873.81
2023-02-02T21:21:24.700Z,100856.38
2023-02-02T21:26:31.930Z,100855.31
2023-02-02T21:31:39.692Z,100863.84
2023-02-02T21:36:47.019Z,100862.41
2023-02-02T21:41:55.082Z,100884.34
2023-02-02T21:46:57.406Z,100860.56
2023-02-02T21:52:02.593Z,100890.97
2023-02-02T21:57:17.196Z,100899.31
2023-02-02T22:02:44.966Z,100903.12
2023-02-02T22:07:49.272Z,100893.12
2023-02-02T22:12:51.371Z,100891.66
2023-02-02T22:17:53.526Z,100885.81
2023-02-02T22:22:55.616Z,100898.06
2023-02-02T22:28:01.451Z,100924.84
2023-02-02T22:33:06.082Z,100914.81
2023-02-02T22:38:09.365Z,100946.53
2023-02-02T22:43:13.418Z,100935.06
2023-02-02T22:48:16.637Z,100955.28
2023-02-02T22:53:18.854Z,100964.06
2023-02-02T22:58:20.922Z,100971.59
2023-02-02T23:03:22.998Z,100979.09
2023-02-02T23:08:25.269Z,100980.69
2023-02-02T23:13:27.328Z,100988.88
2023-02-02T23:18:29.424Z,100992.34
2023-02-02T23:23:31.508Z,101021.94
2023-02-02T23:28:33.778Z,101021.62
2023-02-02T23:33:35.910Z,101035.12
2023-02-02T23:38:38.005Z,101017.53
2023-02-02T23:43:42.577Z,101016.19
2023-02-02T23:48:45.402Z,101039.97
2023-02-02T23:53:47.510Z,101036.50
2023-02-02T23:58:49.670Z,101050.97
